Time;durP1;ratioP1;P1;durP2;ratioP2;P2;SDS_P1;SDS_P2;PMS_P1;PMS_P2;Temp;Humidity;BMP_temperature;BMP_pressure;BME280_temperature;BME280_humidity;BME280_pressure;Samples;Min_cycle;Max_cycle;Signal;HPM_P1;HPM_P2
2023/03/18 00:00:24;;;;;;;16.20;8.70;;;;;;;;;;137230;1278;22373;-84
2023/03/18 00:03:46;;;;;;;13.50;7.50;;;;;;;;;;137196;1277;22243;-83
2023/03/18 00:06:49;;;;;;;17.10;7.30;;;;;;;;;;137214;1278;22180;-82
2023/03/18 00:09:51;;;;;;;19.90;8.30;;;;;;;;;;137227;1278;22236;-81
2023/03/18 00:12:54;;;;;;;16.50;8.50;;;;;;;;;;137150;1277;22233;-81
2023/03/18 00:15:56;;;;;;;19.00;8.10;;;;;;;;;;137164;1277;22160;-83
2023/03/18 00:18:59;;;;;;;16.50;7.30;;;;;;;;;;137252;1278;22235;-84
2023/03/18 00:22:01;;;;;;;17.00;7.90;;;;;;;;;;137178;1277;22771;-81
2023/03/18 00:25:03;;;;;;;16.90;7.40;;;;;;;;;;137217;1277;22404;-82
2023/03/18 00:28:06;;;;;;;20.10;8.00;;;;;;;;;;137241;1277;22748;-82
2023/03/18 00:31:08;;;;;;;13.80;7.60;;;;;;;;;;137253;1277;22125;-84
2023/03/18 00:34:11;;;;;;;14.70;8.00;;;;;;;;;;137208;1277;22138;-84
2023/03/18 00:37:28;;;;;;;21.30;7.90;;;;;;;;;;137160;1277;23183;-84
2023/03/18 00:40:42;;;;;;;18.50;7.70;;;;;;;;;;137287;1278;22235;-84
2023/03/18 00:43:51;;;;;;;12.20;7.20;;;;;;;;;;137171;1278;22294;-84
2023/03/18 00:46:53;;;;;;;14.30;7.20;;;;;;;;;;137213;1277;22604;-81
2023/03/18 00:49:56;;;;;;;16.40;8.00;;;;;;;;;;137186;1278;22140;-83
2023/03/18 00:52:58;;;;;;;14.50;7.40;;;;;;;;;;137248;1278;22168;-82
2023/03/18 00:56:00;;;;;;;13.40;7.30;;;;;;;;;;137174;1277;22232;-82
2023/03/18 00:59:03;;;;;;;13.30;7.20;;;;;;;;;;137204;1277;22381;-82
2023/03/18 01:02:05;;;;;;;18.10;7.80;;;;;;;;;;137109;1278;22548;-82
2023/03/18 01:05:08;;;;;;;12.20;7.20;;;;;;;;;;137179;1278;22203;-82
2023/03/18 01:08:11;;;;;;;14.50;7.70;;;;;;;;;;137206;1277;22209;-82
2023/03/18 01:11:13;;;;;;;16.20;7.50;;;;;;;;;;137201;1277;22227;-82
2023/03/18 01:14:16;;;;;;;16.20;7.50;;;;;;;;;;137191;1278;22162;-83
2023/03/18 01:17:20;;;;;;;;;;;;;;;;;;137238;1277;22334;-82
2023/03/18 01:20:23;;;;;;;17.10;7.50;;;;;;;;;;137152;1277;22219;-82
2023/03/18 01:23:26;;;;;;;28.10;7.40;;;;;;;;;;137246;1278;22221;-82
2023/03/18 01:26:29;;;;;;;13.70;7.20;;;;;;;;;;137102;1278;22215;-82
2023/03/18 01:29:31;;;;;;;13.00;6.60;;;;;;;;;;137208;1277;22212;-81
2023/03/18 01:32:34;;;;;;;12.90;6.70;;;;;;;;;;137185;1278;22043;-81
2023/03/18 01:35:36;;;;;;;13.20;7.30;;;;;;;;;;137155;1277;22192;-82
2023/03/18 01:38:39;;;;;;;14.00;8.00;;;;;;;;;;137209;1278;22837;-82
2023/03/18 01:41:41;;;;;;;17.10;7.60;;;;;;;;;;137129;1278;22176;-81
2023/03/18 01:44:45;;;;;;;9.10;6.30;;;;;;;;;;137044;1278;22710;-83
2023/03/18 01:47:47;;;;;;;13.30;7.60;;;;;;;;;;137231;1277;22273;-81
2023/03/18 01:50:50;;;;;;;14.50;6.60;;;;;;;;;;137192;1277;22163;-82
2023/03/18 01:53:52;;;;;;;13.80;6.90;;;;;;;;;;137155;1277;22178;-82
2023/03/18 01:56:55;;;;;;;15.40;7.30;;;;;;;;;;137174;1277;22190;-82
2023/03/18 01:59:57;;;;;;;13.20;7.30;;;;;;;;;;137207;1277;22292;-83
2023/03/18 02:03:00;;;;;;;21.10;7.90;;;;;;;;;;137130;1277;22615;-81
2023/03/18 02:06:03;;;;;;;14.30;7.50;;;;;;;;;;137201;1278;22203;-82
2023/03/18 02:09:05;;;;;;;14.20;7.50;;;;;;;;;;137244;1277;22194;-81
2023/03/18 02:12:08;;;;;;;15.30;7.80;;;;;;;;;;137208;1278;22234;-83
2023/03/18 02:15:10;;;;;;;14.00;8.00;;;;;;;;;;137120;1277;22145;-83
2023/03/18 02:18:13;;;;;;;12.40;7.10;;;;;;;;;;137061;1278;22551;-82
2023/03/18 02:21:15;;;;;;;13.60;7.60;;;;;;;;;;137204;1277;22191;-82
2023/03/18 02:24:18;;;;;;;18.50;7.80;;;;;;;;;;137119;1278;22558;-81
2023/03/18 02:27:20;;;;;;;17.90;7.80;;;;;;;;;;137279;1277;22174;-82
2023/03/18 02:30:22;;;;;;;17.80;7.90;;;;;;;;;;137219;1277;22242;-81
2023/03/18 02:33:25;;;;;;;13.40;7.60;;;;;;;;;;137058;1278;22160;-81
2023/03/18 02:36:27;;;;;;;15.30;7.50;;;;;;;;;;137209;1278;22190;-82
2023/03/18 02:39:30;;;;;;;15.20;7.80;;;;;;;;;;137144;1277;22233;-81
2023/03/18 02:42:32;;;;;;;16.70;7.90;;;;;;;;;;137202;1278;22197;-84
2023/03/18 02:45:35;;;;;;;19.50;7.70;;;;;;;;;;137311;1278;22608;-82
2023/03/18 02:48:37;;;;;;;16.60;7.80;;;;;;;;;;137270;1277;22121;-81
2023/03/18 02:51:40;;;;;;;18.60;7.80;;;;;;;;;;137185;1277;22180;-83
2023/03/18 02:54:43;;;;;;;17.00;7.60;;;;;;;;;;137247;1277;22204;-81
2023/03/18 02:57:45;;;;;;;15.90;7.70;;;;;;;;;;137309;1278;22408;-82
2023/03/18 03:00:48;;;;;;;20.70;8.40;;;;;;;;;;137188;1277;22365;-81
2023/03/18 03:03:50;;;;;;;16.10;8.30;;;;;;;;;;137189;1277;22784;-81
2023/03/18 03:06:52;;;;;;;15.10;7.90;;;;;;;;;;137192;1278;22346;-81
2023/03/18 03:09:55;;;;;;;13.50;7.40;;;;;;;;;;137069;1277;22544;-80
2023/03/18 03:12:58;;;;;;;17.70;7.80;;;;;;;;;;137179;1278;22267;-82
2023/03/18 03:16:00;;;;;;;15.60;7.40;;;;;;;;;;137137;1277;22222;-81
2023/03/18 03:19:03;;;;;;;13.20;7.50;;;;;;;;;;137142;1278;22718;-81
2023/03/18 03:22:05;;;;;;;15.90;7.60;;;;;;;;;;137197;1277;22147;-83
2023/03/18 03:25:08;;;;;;;16.70;7.90;;;;;;;;;;137182;1277;22174;-82
2023/03/18 03:28:15;;;;;;;17.30;8.10;;;;;;;;;;137119;1277;23029;-81
2023/03/18 03:31:17;;;;;;;14.20;7.90;;;;;;;;;;137305;1277;22994;-80
2023/03/18 03:34:23;;;;;;;19.20;8.10;;;;;;;;;;137167;1277;22680;-84
2023/03/18 03:37:26;;;;;;;15.90;8.50;;;;;;;;;;137169;1277;22151;-81
2023/03/18 03:40:28;;;;;;;16.40;8.00;;;;;;;;;;137149;1278;22146;-81
2023/03/18 03:43:31;;;;;;;21.60;7.90;;;;;;;;;;136954;1279;22656;-81
2023/03/18 03:46:33;;;;;;;18.40;7.30;;;;;;;;;;136778;1279;22702;-82
2023/03/18 03:49:36;;;;;;;25.50;8.50;;;;;;;;;;136919;1279;22925;-82
2023/03/18 03:52:38;;;;;;;15.80;7.70;;;;;;;;;;136888;1279;22102;-81
2023/03/18 03:55:41;;;;;;;14.40;7.50;;;;;;;;;;137160;1275;22703;-83
2023/03/18 03:58:44;;;;;;;15.10;8.00;;;;;;;;;;137288;1275;22557;-82
2023/03/18 04:01:49;;;;;;;19.90;7.50;;;;;;;;;;137333;1275;22284;-82
2023/03/18 04:04:51;;;;;;;18.40;8.70;;;;;;;;;;137312;1275;22146;-81
2023/03/18 04:07:58;;;;;;;17.90;7.20;;;;;;;;;;137328;1275;22199;-83
2023/03/18 04:11:03;;;;;;;17.20;7.60;;;;;;;;;;137289;1275;22151;-83
2023/03/18 04:14:05;;;;;;;15.30;8.20;;;;;;;;;;137372;1275;22688;-81
2023/03/18 04:17:08;;;;;;;15.00;8.10;;;;;;;;;;137324;1275;22604;-81
2023/03/18 04:20:10;;;;;;;19.90;7.50;;;;;;;;;;137361;1275;22207;-81
2023/03/18 04:23:13;;;;;;;13.60;7.20;;;;;;;;;;137333;1275;22552;-82
2023/03/18 04:26:15;;;;;;;16.90;8.00;;;;;;;;;;137386;1275;22272;-82
2023/03/18 04:29:18;;;;;;;16.70;7.60;;;;;;;;;;137389;1275;22160;-83
2023/03/18 04:32:20;;;;;;;16.20;7.50;;;;;;;;;;137169;1275;22851;-82
2023/03/18 04:35:23;;;;;;;17.10;7.70;;;;;;;;;;137237;1275;22184;-82
2023/03/18 04:38:27;;;;;;;26.70;8.60;;;;;;;;;;137338;1275;22170;-82
2023/03/18 04:41:29;;;;;;;14.90;7.40;;;;;;;;;;137382;1273;22189;-83
2023/03/18 04:44:31;;;;;;;18.20;7.60;;;;;;;;;;137591;1273;22205;-83
2023/03/18 04:47:34;;;;;;;19.40;7.10;;;;;;;;;;137541;1273;22181;-83
2023/03/18 04:50:37;;;;;;;13.10;7.40;;;;;;;;;;137538;1273;22228;-82
2023/03/18 04:53:39;;;;;;;15.90;8.10;;;;;;;;;;137422;1273;22545;-81
2023/03/18 04:56:42;;;;;;;16.60;7.50;;;;;;;;;;137577;1273;22328;-82
2023/03/18 04:59:44;;;;;;;13.50;7.20;;;;;;;;;;137486;1273;22292;-81
2023/03/18 05:02:47;;;;;;;13.50;7.70;;;;;;;;;;137536;1273;22315;-81
2023/03/18 05:05:49;;;;;;;15.40;7.50;;;;;;;;;;137582;1273;22264;-81
2023/03/18 05:08:52;;;;;;;16.10;8.20;;;;;;;;;;137516;1273;22861;-81
2023/03/18 05:11:54;;;;;;;16.90;7.70;;;;;;;;;;137518;1273;22253;-82
2023/03/18 05:14:57;;;;;;;21.20;8.00;;;;;;;;;;137512;1273;22175;-82
2023/03/18 05:17:59;;;;;;;17.50;8.70;;;;;;;;;;137529;1273;22407;-83
2023/03/18 05:21:01;;;;;;;18.30;8.60;;;;;;;;;;137563;1273;22375;-83
2023/03/18 05:24:04;;;;;;;15.20;8.20;;;;;;;;;;137520;1273;22340;-83
2023/03/18 05:27:06;;;;;;;17.10;8.90;;;;;;;;;;137451;1262;22236;-83
2023/03/18 05:30:09;;;;;;;16.50;7.60;;;;;;;;;;137560;1273;22211;-82
2023/03/18 05:33:12;;;;;;;20.80;8.50;;;;;;;;;;137582;1273;22216;-83
2023/03/18 05:36:15;;;;;;;19.50;7.90;;;;;;;;;;137481;1273;22249;-83
2023/03/18 05:39:17;;;;;;;19.50;7.40;;;;;;;;;;137558;1273;22151;-83
2023/03/18 05:42:20;;;;;;;14.80;7.60;;;;;;;;;;137537;1273;22255;-83
2023/03/18 05:45:22;;;;;;;16.80;7.50;;;;;;;;;;137595;1273;22575;-82
2023/03/18 05:48:25;;;;;;;38.00;10.50;;;;;;;;;;137497;1269;22243;-82
2023/03/18 05:51:28;;;;;;;30.20;8.10;;;;;;;;;;137531;1273;22213;-82
2023/03/18 05:54:31;;;;;;;91.10;11.30;;;;;;;;;;137443;1273;22245;-83
2023/03/18 05:57:33;;;;;;;16.90;8.20;;;;;;;;;;137515;1273;22245;-82
2023/03/18 06:00:36;;;;;;;19.90;8.70;;;;;;;;;;137519;1273;22198;-83
2023/03/18 06:03:38;;;;;;;16.00;7.90;;;;;;;;;;137468;1273;22315;-83
2023/03/18 06:06:41;;;;;;;13.70;7.50;;;;;;;;;;137546;1273;22466;-83
2023/03/18 06:09:44;;;;;;;60.80;8.50;;;;;;;;;;137574;1273;22284;-83
2023/03/18 06:12:46;;;;;;;38.00;8.50;;;;;;;;;;137555;1273;22229;-83
2023/03/18 06:15:48;;;;;;;22.60;7.90;;;;;;;;;;137535;1269;22177;-81
2023/03/18 06:18:51;;;;;;;48.80;9.00;;;;;;;;;;137538;1273;22347;-82
2023/03/18 06:21:53;;;;;;;32.20;8.60;;;;;;;;;;137542;1273;22764;-83
2023/03/18 06:24:56;;;;;;;51.90;9.00;;;;;;;;;;137526;1273;22255;-80
2023/03/18 06:27:58;;;;;;;96.50;12.70;;;;;;;;;;137509;1273;22469;-81
2023/03/18 06:31:01;;;;;;;26.40;9.50;;;;;;;;;;137564;1273;22551;-81
2023/03/18 06:34:04;;;;;;;43.00;10.00;;;;;;;;;;137489;1273;22224;-82
2023/03/18 06:37:06;;;;;;;15.40;8.30;;;;;;;;;;137533;1273;22212;-80
2023/03/18 06:40:12;;;;;;;18.60;8.20;;;;;;;;;;137409;1273;22981;-83
2023/03/18 06:43:14;;;;;;;24.90;13.10;;;;;;;;;;137553;1273;22244;-81
2023/03/18 06:46:17;;;;;;;18.40;10.60;;;;;;;;;;137540;1273;22257;-83
2023/03/18 06:49:19;;;;;;;18.30;8.00;;;;;;;;;;137486;1273;22271;-82
2023/03/18 06:52:22;;;;;;;19.30;8.60;;;;;;;;;;137475;1273;22545;-81
2023/03/18 06:55:24;;;;;;;16.10;7.70;;;;;;;;;;137505;1273;22293;-83
2023/03/18 06:58:27;;;;;;;17.60;8.30;;;;;;;;;;137398;1273;22615;-82
2023/03/18 07:01:31;;;;;;;94.70;12.80;;;;;;;;;;137490;1273;22231;-82
2023/03/18 07:04:34;;;;;;;19.10;9.10;;;;;;;;;;137574;1273;22152;-82
2023/03/18 07:07:37;;;;;;;82.30;10.80;;;;;;;;;;137490;1273;22575;-82
2023/03/18 07:10:40;;;;;;;31.20;9.10;;;;;;;;;;137538;1273;22756;-83
2023/03/18 07:13:43;;;;;;;22.10;9.10;;;;;;;;;;137552;1266;22259;-82
2023/03/18 07:16:45;;;;;;;19.60;8.00;;;;;;;;;;137558;1273;22266;-82
2023/03/18 07:19:48;;;;;;;22.50;9.10;;;;;;;;;;137564;1273;22255;-83
2023/03/18 07:22:51;;;;;;;19.20;8.00;;;;;;;;;;137495;1273;22199;-83
2023/03/18 07:25:53;;;;;;;17.90;7.70;;;;;;;;;;137574;1273;22613;-83
2023/03/18 07:28:56;;;;;;;12.30;7.10;;;;;;;;;;137495;1273;22323;-82
2023/03/18 07:31:58;;;;;;;15.30;7.50;;;;;;;;;;137574;1273;22224;-83
2023/03/18 07:35:01;;;;;;;13.10;7.00;;;;;;;;;;137596;1273;22637;-82
2023/03/18 07:38:04;;;;;;;29.50;16.10;;;;;;;;;;137419;1273;22473;-82
2023/03/18 07:41:06;;;;;;;16.10;7.60;;;;;;;;;;137436;1273;22625;-82
2023/03/18 07:44:11;;;;;;;12.30;7.20;;;;;;;;;;137575;1273;22296;-82
2023/03/18 07:47:14;;;;;;;11.90;7.30;;;;;;;;;;137592;1273;22844;-83
2023/03/18 07:50:17;;;;;;;16.10;7.70;;;;;;;;;;137448;1273;23016;-83
2023/03/18 07:53:19;;;;;;;16.60;8.90;;;;;;;;;;137250;1273;22707;-83
2023/03/18 07:56:23;;;;;;;14.60;8.80;;;;;;;;;;137561;1273;22594;-83
2023/03/18 07:59:25;;;;;;;12.70;7.70;;;;;;;;;;137505;1273;22222;-82
2023/03/18 08:02:27;;;;;;;12.40;7.60;;;;;;;;;;137567;1273;22223;-81
2023/03/18 08:05:30;;;;;;;12.20;7.20;;;;;;;;;;137549;1272;22211;-83
2023/03/18 08:08:33;;;;;;;14.80;7.90;;;;;;;;;;137565;1273;22220;-82
2023/03/18 08:11:36;;;;;;;14.30;7.40;;;;;;;;;;137521;1273;22236;-82
2023/03/18 08:14:39;;;;;;;13.90;7.30;;;;;;;;;;137587;1273;22298;-83
2023/03/18 08:17:41;;;;;;;101.60;13.20;;;;;;;;;;137576;1273;22159;-84
2023/03/18 08:20:44;;;;;;;16.50;7.60;;;;;;;;;;137520;1273;22650;-83
2023/03/18 08:23:47;;;;;;;13.60;7.30;;;;;;;;;;137846;1270;22287;-82
2023/03/18 08:26:49;;;;;;;13.90;7.40;;;;;;;;;;137934;1269;22283;-83
2023/03/18 08:29:52;;;;;;;12.00;7.10;;;;;;;;;;137875;1270;22420;-82
2023/03/18 08:32:56;;;;;;;14.30;7.60;;;;;;;;;;137827;1270;22212;-80
2023/03/18 08:35:58;;;;;;;17.30;7.50;;;;;;;;;;137949;1270;22210;-80
2023/03/18 08:39:01;;;;;;;13.90;7.50;;;;;;;;;;137864;1270;22234;-81
2023/03/18 08:42:03;;;;;;;14.60;7.50;;;;;;;;;;137778;1269;23062;-81
2023/03/18 08:45:06;;;;;;;15.10;7.60;;;;;;;;;;137834;1266;22221;-83
2023/03/18 08:48:08;;;;;;;11.40;7.40;;;;;;;;;;137864;1270;22605;-82
2023/03/18 08:51:11;;;;;;;11.60;7.60;;;;;;;;;;137872;1269;22739;-84
2023/03/18 08:54:13;;;;;;;12.50;7.80;;;;;;;;;;137920;1270;22216;-83
2023/03/18 08:57:16;;;;;;;12.50;7.80;;;;;;;;;;137583;1269;22442;-83
2023/03/18 09:00:19;;;;;;;496.80;32.20;;;;;;;;;;137888;1270;22307;-80
2023/03/18 09:03:23;;;;;;;33.90;8.80;;;;;;;;;;137538;1270;22530;-82
2023/03/18 09:06:29;;;;;;;54.60;9.30;;;;;;;;;;137157;1269;22540;-83
2023/03/18 09:09:35;;;;;;;17.70;8.00;;;;;;;;;;137140;1270;22540;-81
2023/03/18 09:12:39;;;;;;;17.90;9.40;;;;;;;;;;136854;1269;26833;-83
2023/03/18 09:15:42;;;;;;;16.60;8.20;;;;;;;;;;137167;1270;22544;-83
2023/03/18 09:18:45;;;;;;;79.70;12.10;;;;;;;;;;137737;1270;22261;-83
2023/03/18 09:21:47;;;;;;;18.10;7.80;;;;;;;;;;137775;1270;25239;-84
2023/03/18 09:24:50;;;;;;;17.30;7.90;;;;;;;;;;137287;1270;22537;-83
2023/03/18 09:27:52;;;;;;;14.40;7.80;;;;;;;;;;137588;1270;22286;-83
2023/03/18 09:30:55;;;;;;;15.10;8.60;;;;;;;;;;137960;1270;22596;-84
2023/03/18 09:34:01;;;;;;;13.20;8.10;;;;;;;;;;137854;1266;22438;-83
2023/03/18 09:37:05;;;;;;;16.80;8.40;;;;;;;;;;137804;1270;22240;-83
2023/03/18 09:40:09;;;;;;;13.60;8.20;;;;;;;;;;137890;1270;22617;-83
2023/03/18 09:43:12;;;;;;;11.00;7.60;;;;;;;;;;137915;1269;22400;-83
2023/03/18 09:46:17;;;;;;;12.50;8.40;;;;;;;;;;137717;1269;198088;-83
2023/03/18 09:49:20;;;;;;;10.50;7.60;;;;;;;;;;137909;1270;22253;-84
2023/03/18 09:52:22;;;;;;;14.80;9.00;;;;;;;;;;137916;1260;22120;-81
2023/03/18 09:55:26;;;;;;;18.20;8.00;;;;;;;;;;137626;1269;22259;-84
2023/03/18 09:58:28;;;;;;;14.40;8.20;;;;;;;;;;137815;1266;22241;-82
2023/03/18 10:01:31;;;;;;;17.10;7.40;;;;;;;;;;137615;1270;22187;-82
2023/03/18 10:04:33;;;;;;;16.10;8.00;;;;;;;;;;137904;1270;22243;-81
2023/03/18 10:07:36;;;;;;;34.60;8.80;;;;;;;;;;137947;1270;22217;-83
2023/03/18 10:10:38;;;;;;;16.20;8.30;;;;;;;;;;137975;1270;22156;-82
2023/03/18 10:13:41;;;;;;;13.30;7.70;;;;;;;;;;137907;1270;22732;-81
2023/03/18 10:16:44;;;;;;;20.10;7.40;;;;;;;;;;137924;1270;22317;-82
2023/03/18 10:19:46;;;;;;;12.20;7.10;;;;;;;;;;137835;1270;22282;-82
2023/03/18 10:22:48;;;;;;;13.20;7.40;;;;;;;;;;137856;1270;22318;-81
2023/03/18 10:25:51;;;;;;;16.50;7.40;;;;;;;;;;137961;1270;22220;-82
2023/03/18 10:28:55;;;;;;;14.10;7.10;;;;;;;;;;137878;1270;22653;-82
2023/03/18 10:31:57;;;;;;;10.50;6.90;;;;;;;;;;137951;1270;22219;-82
2023/03/18 10:35:00;;;;;;;16.20;11.00;;;;;;;;;;137942;1269;22218;-82
2023/03/18 10:38:03;;;;;;;14.20;8.00;;;;;;;;;;137838;1269;22206;-82
2023/03/18 10:41:07;;;;;;;10.90;7.80;;;;;;;;;;137853;1269;22638;-83
2023/03/18 10:44:09;;;;;;;11.30;7.20;;;;;;;;;;137895;1266;22177;-82
2023/03/18 10:47:14;;;;;;;17.00;6.90;;;;;;;;;;137953;1269;22273;-82
2023/03/18 10:50:16;;;;;;;13.00;7.00;;;;;;;;;;137946;1269;22555;-82
2023/03/18 10:53:22;;;;;;;13.50;7.30;;;;;;;;;;137939;1269;22226;-83
2023/03/18 10:56:24;;;;;;;10.00;7.10;;;;;;;;;;137661;1269;22518;-83
2023/03/18 10:59:27;;;;;;;12.10;6.70;;;;;;;;;;137852;1270;22232;-83
2023/03/18 11:02:31;;;;;;;11.30;7.60;;;;;;;;;;137938;1270;22328;-83
2023/03/18 11:05:33;;;;;;;10.70;8.00;;;;;;;;;;137778;1270;22402;-83
2023/03/18 11:08:36;;;;;;;10.00;6.90;;;;;;;;;;137937;1270;22204;-82
2023/03/18 11:11:38;;;;;;;13.80;7.70;;;;;;;;;;137937;1270;22138;-81
2023/03/18 11:14:41;;;;;;;10.50;6.90;;;;;;;;;;137747;1263;22560;-82
2023/03/18 11:17:44;;;;;;;9.10;6.80;;;;;;;;;;137978;1269;22060;-82
2023/03/18 11:20:48;;;;;;;17.40;8.10;;;;;;;;;;137961;1269;22668;-82
2023/03/18 11:24:06;;;;;;;10.70;7.00;;;;;;;;;;137938;1270;23349;-83
2023/03/18 11:27:09;;;;;;;14.00;7.30;;;;;;;;;;137966;1270;22271;-81
2023/03/18 11:30:15;;;;;;;9.40;7.10;;;;;;;;;;137958;1270;22327;-82
2023/03/18 11:33:18;;;;;;;8.30;6.30;;;;;;;;;;137960;1270;22207;-81
2023/03/18 11:36:21;;;;;;;10.80;7.60;;;;;;;;;;137998;1269;22228;-83
2023/03/18 11:39:23;;;;;;;35.60;9.50;;;;;;;;;;138000;1266;22864;-82
2023/03/18 11:42:26;;;;;;;11.20;6.80;;;;;;;;;;137980;1270;22211;-82
2023/03/18 11:45:28;;;;;;;15.70;8.70;;;;;;;;;;137887;1270;22172;-83
2023/03/18 11:48:31;;;;;;;15.00;7.30;;;;;;;;;;137978;1269;22217;-83
2023/03/18 11:51:33;;;;;;;12.20;8.40;;;;;;;;;;137907;1270;22215;-83
2023/03/18 11:54:39;;;;;;;13.20;7.80;;;;;;;;;;137945;1270;22230;-82
2023/03/18 11:57:41;;;;;;;10.90;7.10;;;;;;;;;;138040;1269;22654;-82
2023/03/18 12:00:44;;;;;;;9.70;6.80;;;;;;;;;;137885;1269;22696;-83
2023/03/18 12:03:47;;;;;;;36.50;8.50;;;;;;;;;;137970;1269;22287;-82
2023/03/18 12:06:49;;;;;;;12.20;7.00;;;;;;;;;;137939;1270;23074;-82
2023/03/18 12:09:52;;;;;;;443.30;32.30;;;;;;;;;;137975;1270;22233;-82
2023/03/18 12:12:55;;;;;;;16.20;7.60;;;;;;;;;;138007;1270;22228;-83
2023/03/18 12:15:58;;;;;;;12.50;7.70;;;;;;;;;;137965;1270;22535;-82
2023/03/18 12:19:18;;;;;;;10.90;7.30;;;;;;;;;;133909;1296;544930;-82
2023/03/18 12:22:21;;;;;;;67.50;10.40;;;;;;;;;;136702;1278;22240;-82
2023/03/18 12:25:29;;;;;;;13.70;7.70;;;;;;;;;;137014;1278;22721;-82
2023/03/18 12:28:31;;;;;;;9.80;6.50;;;;;;;;;;136866;1278;22372;-82
2023/03/18 12:31:34;;;;;;;12.60;7.80;;;;;;;;;;136717;1276;114606;-82
2023/03/18 12:34:39;;;;;;;17.30;10.20;;;;;;;;;;136909;1269;22547;-84
2023/03/18 12:37:41;;;;;;;26.30;8.10;;;;;;;;;;137046;1276;22146;-82
2023/03/18 12:40:44;;;;;;;11.10;7.10;;;;;;;;;;136723;1276;22224;-82
2023/03/18 12:43:46;;;;;;;16.60;6.30;;;;;;;;;;136872;1276;22265;-81
2023/03/18 12:46:49;;;;;;;31.90;7.60;;;;;;;;;;137128;1276;22565;-81
2023/03/18 12:49:54;;;;;;;10.70;6.60;;;;;;;;;;136847;1276;22194;-84
2023/03/18 12:52:57;;;;;;;14.40;6.30;;;;;;;;;;136776;1276;22181;-83
2023/03/18 12:56:00;;;;;;;8.60;7.10;;;;;;;;;;137239;1276;22555;-82
2023/03/18 12:59:03;;;;;;;15.50;7.40;;;;;;;;;;137111;1276;22297;-82
2023/03/18 13:02:06;;;;;;;9.80;7.30;;;;;;;;;;136802;1276;22224;-82
2023/03/18 13:05:08;;;;;;;54.30;9.70;;;;;;;;;;136823;1264;24173;-82
2023/03/18 13:08:11;;;;;;;13.40;7.70;;;;;;;;;;137112;1276;22102;-81
2023/03/18 13:11:13;;;;;;;11.90;6.80;;;;;;;;;;136637;1276;22252;-81
2023/03/18 13:14:16;;;;;;;12.20;7.10;;;;;;;;;;136885;1276;22539;-82
2023/03/18 13:17:18;;;;;;;14.90;7.20;;;;;;;;;;137234;1276;22227;-82
2023/03/18 13:20:21;;;;;;;18.80;7.50;;;;;;;;;;137200;1276;23277;-81
2023/03/18 13:23:24;;;;;;;17.70;7.10;;;;;;;;;;137222;1276;22697;-82
2023/03/18 13:26:27;;;;;;;8.50;6.50;;;;;;;;;;137216;1276;22173;-82
2023/03/18 13:29:32;;;;;;;10.30;6.70;;;;;;;;;;137028;1276;22573;-83
2023/03/18 13:32:35;;;;;;;180.30;16.20;;;;;;;;;;136946;1276;22557;-82
2023/03/18 13:35:38;;;;;;;241.50;19.20;;;;;;;;;;137254;1264;22219;-83
2023/03/18 13:38:40;;;;;;;17.50;7.60;;;;;;;;;;137099;1276;22213;-85
2023/03/18 13:41:43;;;;;;;12.20;7.50;;;;;;;;;;137187;1276;22557;-85
2023/03/18 13:44:46;;;;;;;11.60;7.10;;;;;;;;;;137275;1276;22509;-84
2023/03/18 13:47:48;;;;;;;34.50;8.60;;;;;;;;;;137231;1276;22576;-83
2023/03/18 13:50:51;;;;;;;13.40;6.70;;;;;;;;;;137256;1276;22194;-83
2023/03/18 13:53:53;;;;;;;11.50;6.80;;;;;;;;;;137377;1276;22305;-85
2023/03/18 13:56:56;;;;;;;12.20;6.80;;;;;;;;;;137316;1276;22296;-85
2023/03/18 13:59:59;;;;;;;8.70;6.60;;;;;;;;;;137257;1276;22541;-83
2023/03/18 14:03:01;;;;;;;10.50;7.00;;;;;;;;;;137277;1276;22383;-83
2023/03/18 14:06:04;;;;;;;17.30;6.80;;;;;;;;;;137256;1276;22240;-83
2023/03/18 14:09:06;;;;;;;11.30;7.00;;;;;;;;;;137329;1276;22193;-82
2023/03/18 14:12:10;;;;;;;10.20;6.60;;;;;;;;;;137242;1276;22183;-84
2023/03/18 14:15:13;;;;;;;20.70;8.20;;;;;;;;;;137260;1276;22386;-83
2023/03/18 14:18:15;;;;;;;8.00;6.80;;;;;;;;;;137252;1276;22180;-83
2023/03/18 14:21:18;;;;;;;8.80;6.80;;;;;;;;;;137341;1276;22163;-82
2023/03/18 14:24:20;;;;;;;12.00;7.80;;;;;;;;;;137278;1276;22243;-83
2023/03/18 14:27:24;;;;;;;12.40;6.90;;;;;;;;;;137191;1276;22407;-83
2023/03/18 14:30:26;;;;;;;9.30;5.90;;;;;;;;;;137213;1276;22251;-82
2023/03/18 14:33:29;;;;;;;13.00;7.30;;;;;;;;;;137278;1276;22268;-82
2023/03/18 14:36:31;;;;;;;14.60;7.20;;;;;;;;;;137284;1276;22253;-83
2023/03/18 14:39:33;;;;;;;7.90;6.50;;;;;;;;;;137164;1276;22283;-83
2023/03/18 14:42:36;;;;;;;8.80;6.60;;;;;;;;;;137126;1276;22241;-83
2023/03/18 14:45:38;;;;;;;10.10;6.90;;;;;;;;;;137130;1276;22218;-82
2023/03/18 14:48:41;;;;;;;11.30;7.20;;;;;;;;;;137226;1276;22279;-83
2023/03/18 14:51:44;;;;;;;8.20;6.90;;;;;;;;;;137316;1276;22416;-82
2023/03/18 14:54:46;;;;;;;12.70;9.10;;;;;;;;;;137324;1276;22161;-83
2023/03/18 14:57:49;;;;;;;12.30;8.10;;;;;;;;;;137310;1276;22151;-82
2023/03/18 15:00:52;;;;;;;10.20;6.30;;;;;;;;;;137280;1276;22290;-82
2023/03/18 15:03:55;;;;;;;17.10;6.80;;;;;;;;;;137248;1276;22234;-83
2023/03/18 15:06:58;;;;;;;13.00;6.60;;;;;;;;;;137273;1276;22353;-83
2023/03/18 15:10:01;;;;;;;12.20;6.30;;;;;;;;;;137348;1276;22583;-83
2023/03/18 15:13:05;;;;;;;9.00;6.30;;;;;;;;;;137245;1276;22163;-82
2023/03/18 15:16:08;;;;;;;;;;;;;;;;;;137372;1276;22319;-82
2023/03/18 15:19:11;;;;;;;;;;;;;;;;;;137331;1276;22494;-82
2023/03/18 15:22:13;;;;;;;;;;;;;;;;;;137320;1276;22521;-81
2023/03/18 15:25:16;;;;;;;;;;;;;;;;;;137304;1271;22526;-82
2023/03/18 15:28:18;;;;;;;;;;;;;;;;;;137147;1276;22573;-82
2023/03/18 15:31:21;;;;;;;;;;;;;;;;;;137131;1276;22585;-83
2023/03/18 15:34:23;;;;;;;;;;;;;;;;;;137249;1276;22897;-82
2023/03/18 15:37:25;;;;;;;;;;;;;;;;;;137354;1276;22502;-82
2023/03/18 15:40:28;;;;;;;;;;;;;;;;;;137295;1276;23274;-82
2023/03/18 15:43:31;;;;;;;;;;;;;;;;;;137288;1276;22943;-81
2023/03/18 15:46:33;;;;;;;;;;;;;;;;;;137340;1276;22895;-83
2023/03/18 15:49:36;;;;;;;;;;;;;;;;;;137327;1276;22199;-82
2023/03/18 15:52:38;;;;;;;;;;;;;;;;;;137313;1276;22526;-82
2023/03/18 15:55:41;;;;;;;;;;;;;;;;;;137323;1276;22358;-82
2023/03/18 15:58:44;;;;;;;;;;;;;;;;;;137278;1276;22518;-81
2023/03/18 16:01:47;;;;;;;;;;;;;;;;;;137289;1276;22918;-82
2023/03/18 16:04:49;;;;;;;;;;;;;;;;;;137220;1276;22627;-82
2023/03/18 16:07:52;;;;;;;;;;;;;;;;;;137277;1276;22525;-82
2023/03/18 16:10:55;;;;;;;;;;;;;;;;;;137211;1276;22543;-82
2023/03/18 16:13:58;;;;;;;;;;;;;;;;;;137359;1276;22331;-82
2023/03/18 16:17:01;;;;;;;;;;;;;;;;;;137241;1276;22937;-82
2023/03/18 16:20:05;;;;;;;;;;;;;;;;;;137219;1276;22570;-82
2023/03/18 16:23:07;;;;;;;;;;;;;;;;;;137237;1276;22502;-82
2023/03/18 16:26:10;;;;;;;;;;;;;;;;;;137207;1276;22503;-82
2023/03/18 16:29:13;;;;;;;;;;;;;;;;;;137277;1276;22620;-81
2023/03/18 16:32:16;;;;;;;;;;;;;;;;;;137193;1276;22499;-81
2023/03/18 16:35:19;;;;;;;;;;;;;;;;;;137301;1276;22498;-82
2023/03/18 16:38:21;;;;;;;;;;;;;;;;;;137332;1276;22482;-82
2023/03/18 16:41:24;;;;;;;;;;;;;;;;;;137299;1276;22505;-82
2023/03/18 16:44:27;;;;;;;;;;;;;;;;;;137297;1265;22580;-82
2023/03/18 16:47:29;;;;;;;;;;;;;;;;;;137261;1276;22514;-82
2023/03/18 16:50:31;;;;;;;;;;;;;;;;;;137247;1276;22494;-81
2023/03/18 16:53:34;;;;;;;;;;;;;;;;;;137293;1276;22545;-82
2023/03/18 16:56:37;;;;;;;;;;;;;;;;;;137256;1270;22516;-82
2023/03/18 16:59:40;;;;;;;;;;;;;;;;;;137158;1276;22529;-83
2023/03/18 17:02:42;;;;;;;;;;;;;;;;;;137209;1276;22544;-82
2023/03/18 17:05:47;;;;;;;;;;;;;;;;;;137246;1276;22504;-81
2023/03/18 17:08:51;;;;;;;;;;;;;;;;;;137295;1276;22510;-81
2023/03/18 17:11:53;;;;;;;;;;;;;;;;;;137333;1276;22361;-82
2023/03/18 17:14:56;;;;;;;;;;;;;;;;;;137275;1276;22599;-82
2023/03/18 17:17:58;;;;;;;;;;;;;;;;;;137379;1276;22429;-81
2023/03/18 17:21:02;;;;;;;;;;;;;;;;;;137219;1276;22535;-82
2023/03/18 17:24:05;;;;;;;;;;;;;;;;;;137148;1276;22491;-81
2023/03/18 17:27:08;;;;;;;;;;;;;;;;;;137343;1276;23031;-82
2023/03/18 17:30:10;;;;;;;;;;;;;;;;;;137326;1276;22334;-82
2023/03/18 17:33:13;;;;;;;;;;;;;;;;;;137105;1276;22537;-82
2023/03/18 17:36:15;;;;;;;;;;;;;;;;;;137236;1276;22498;-82
2023/03/18 17:39:19;;;;;;;;;;;;;;;;;;137320;1276;22732;-82
2023/03/18 17:42:21;;;;;;;;;;;;;;;;;;137282;1276;22514;-81
2023/03/18 17:45:24;;;;;;;;;;;;;;;;;;137373;1276;22914;-82
2023/03/18 17:48:27;;;;;;;;;;;;;;;;;;137272;1276;22544;-82
2023/03/18 17:51:30;;;;;;;;;;;;;;;;;;137252;1276;22490;-81
2023/03/18 17:54:32;;;;;;;;;;;;;;;;;;137295;1276;22532;-81
2023/03/18 17:57:35;;;;;;;;;;;;;;;;;;137326;1276;22894;-82
2023/03/18 18:00:38;;;;;;;;;;;;;;;;;;137235;1276;22506;-82
2023/03/18 18:03:40;;;;;;;;;;;;;;;;;;137300;1276;22507;-81
2023/03/18 18:06:43;;;;;;;;;;;;;;;;;;137280;1271;22541;-82